sensor_id;sensor_type;location;lat;lon;timestamp;P1;durP1;ratioP1;P2;durP2;ratioP2
22191;SDS011;11261;52.456;10.850;2023-04-29T00:00:27;13.48;;;6.20;;
22191;SDS011;11261;52.456;10.850;2023-04-29T00:02:57;14.63;;;7.97;;
22191;SDS011;11261;52.456;10.850;2023-04-29T00:05:27;12.98;;;7.88;;
22191;SDS011;11261;52.456;10.850;2023-04-29T00:07:55;9.77;;;6.70;;
22191;SDS011;11261;52.456;10.850;2023-04-29T00:10:24;9.85;;;6.82;;
22191;SDS011;11261;52.456;10.850;2023-04-29T00:12:52;11.43;;;6.57;;
22191;SDS011;11261;52.456;10.850;2023-04-29T00:15:20;12.02;;;6.63;;
22191;SDS011;11261;52.456;10.850;2023-04-29T00:17:50;13.07;;;6.75;;
22191;SDS011;11261;52.456;10.850;2023-04-29T00:20:20;13.02;;;7.85;;
22191;SDS011;11261;52.456;10.850;2023-04-29T00:22:48;12.25;;;8.02;;
22191;SDS011;11261;52.456;10.850;2023-04-29T00:25:16;12.52;;;7.53;;
22191;SDS011;11261;52.456;10.850;2023-04-29T00:27:45;14.25;;;7.72;;
22191;SDS011;11261;52.456;10.850;2023-04-29T00:30:13;14.73;;;8.40;;
22191;SDS011;11261;52.456;10.850;2023-04-29T00:32:42;13.73;;;7.03;;
22191;SDS011;11261;52.456;10.850;2023-04-29T00:35:12;15.05;;;7.38;;
22191;SDS011;11261;52.456;10.850;2023-04-29T00:37:42;12.75;;;7.53;;
22191;SDS011;11261;52.456;10.850;2023-04-29T00:40:10;14.63;;;8.05;;
22191;SDS011;11261;52.456;10.850;2023-04-29T00:42:40;17.00;;;8.35;;
22191;SDS011;11261;52.456;10.850;2023-04-29T00:45:09;15.05;;;8.27;;
22191;SDS011;11261;52.456;10.850;2023-04-29T00:47:38;14.27;;;8.35;;
22191;SDS011;11261;52.456;10.850;2023-04-29T00:50:07;14.20;;;7.78;;
22191;SDS011;11261;52.456;10.850;2023-04-29T00:52:36;13.63;;;8.07;;
22191;SDS011;11261;52.456;10.850;2023-04-29T00:55:06;14.73;;;8.15;;
22191;SDS011;11261;52.456;10.850;2023-04-29T00:57:35;14.82;;;8.30;;
22191;SDS011;11261;52.456;10.850;2023-04-29T01:00:05;16.02;;;8.43;;
22191;SDS011;11261;52.456;10.850;2023-04-29T01:02:35;16.15;;;9.10;;
22191;SDS011;11261;52.456;10.850;2023-04-29T01:05:04;18.05;;;8.80;;
22191;SDS011;11261;52.456;10.850;2023-04-29T01:07:33;16.50;;;8.77;;
22191;SDS011;11261;52.456;10.850;2023-04-29T01:10:13;14.52;;;8.40;;
22191;SDS011;11261;52.456;10.850;2023-04-29T01:12:48;15.98;;;8.95;;
22191;SDS011;11261;52.456;10.850;2023-04-29T01:15:21;16.13;;;9.05;;
22191;SDS011;11261;52.456;10.850;2023-04-29T01:17:54;17.33;;;9.65;;
22191;SDS011;11261;52.456;10.850;2023-04-29T01:20:25;19.02;;;9.40;;
22191;SDS011;11261;52.456;10.850;2023-04-29T01:22:54;17.17;;;10.38;;
22191;SDS011;11261;52.456;10.850;2023-04-29T01:25:24;17.27;;;10.15;;
22191;SDS011;11261;52.456;10.850;2023-04-29T01:27:56;11.38;;;6.68;;
22191;SDS011;11261;52.456;10.850;2023-04-29T01:30:33;17.27;;;9.07;;
22191;SDS011;11261;52.456;10.850;2023-04-29T01:33:13;18.65;;;9.70;;
22191;SDS011;11261;52.456;10.850;2023-04-29T01:35:51;19.50;;;10.10;;
22191;SDS011;11261;52.456;10.850;2023-04-29T01:38:33;17.75;;;9.63;;
22191;SDS011;11261;52.456;10.850;2023-04-29T01:41:13;16.45;;;8.77;;
22191;SDS011;11261;52.456;10.850;2023-04-29T01:43:45;20.83;;;10.43;;
22191;SDS011;11261;52.456;10.850;2023-04-29T01:46:16;21.58;;;11.30;;
22191;SDS011;11261;52.456;10.850;2023-04-29T01:48:45;21.35;;;11.00;;
22191;SDS011;11261;52.456;10.850;2023-04-29T01:51:13;20.05;;;10.63;;
22191;SDS011;11261;52.456;10.850;2023-04-29T01:53:41;21.63;;;11.05;;
22191;SDS011;11261;52.456;10.850;2023-04-29T01:56:10;18.42;;;9.77;;
22191;SDS011;11261;52.456;10.850;2023-04-29T01:58:39;22.65;;;10.35;;
22191;SDS011;11261;52.456;10.850;2023-04-29T02:01:08;24.65;;;11.55;;
22191;SDS011;11261;52.456;10.850;2023-04-29T02:03:37;18.35;;;9.27;;
22191;SDS011;11261;52.456;10.850;2023-04-29T02:06:05;21.30;;;9.85;;
22191;SDS011;11261;52.456;10.850;2023-04-29T02:08:34;16.75;;;9.15;;
22191;SDS011;11261;52.456;10.850;2023-04-29T02:11:03;20.23;;;10.85;;
22191;SDS011;11261;52.456;10.850;2023-04-29T02:16:08;13.95;;;7.75;;
22191;SDS011;11261;52.456;10.850;2023-04-29T02:18:37;19.77;;;10.75;;
22191;SDS011;11261;52.456;10.850;2023-04-29T02:21:05;18.52;;;9.55;;
22191;SDS011;11261;52.456;10.850;2023-04-29T02:23:34;20.55;;;9.73;;
22191;SDS011;11261;52.456;10.850;2023-04-29T02:26:03;18.30;;;9.18;;
22191;SDS011;11261;52.456;10.850;2023-04-29T02:28:32;17.55;;;8.27;;
22191;SDS011;11261;52.456;10.850;2023-04-29T02:31:01;19.75;;;9.35;;
22191;SDS011;11261;52.456;10.850;2023-04-29T02:33:31;19.25;;;9.52;;
22191;SDS011;11261;52.456;10.850;2023-04-29T02:35:59;17.33;;;8.77;;
22191;SDS011;11261;52.456;10.850;2023-04-29T02:38:28;18.85;;;10.50;;
22191;SDS011;11261;52.456;10.850;2023-04-29T02:40:56;17.80;;;9.90;;
22191;SDS011;11261;52.456;10.850;2023-04-29T02:43:24;18.65;;;9.95;;
22191;SDS011;11261;52.456;10.850;2023-04-29T02:45:56;20.90;;;10.43;;
22191;SDS011;11261;52.456;10.850;2023-04-29T02:48:24;21.17;;;10.90;;
22191;SDS011;11261;52.456;10.850;2023-04-29T02:50:54;18.05;;;10.15;;
22191;SDS011;11261;52.456;10.850;2023-04-29T02:53:22;19.65;;;10.38;;
22191;SDS011;11261;52.456;10.850;2023-04-29T02:55:50;17.50;;;9.50;;
22191;SDS011;11261;52.456;10.850;2023-04-29T02:58:19;20.52;;;10.80;;
22191;SDS011;11261;52.456;10.850;2023-04-29T03:00:47;19.50;;;9.70;;
22191;SDS011;11261;52.456;10.850;2023-04-29T03:03:15;17.42;;;9.80;;
22191;SDS011;11261;52.456;10.850;2023-04-29T03:05:44;16.95;;;10.38;;
22191;SDS011;11261;52.456;10.850;2023-04-29T03:08:13;14.57;;;8.48;;
22191;SDS011;11261;52.456;10.850;2023-04-29T03:10:41;15.85;;;8.52;;
22191;SDS011;11261;52.456;10.850;2023-04-29T03:13:11;19.45;;;10.95;;
22191;SDS011;11261;52.456;10.850;2023-04-29T03:15:40;18.27;;;10.20;;
22191;SDS011;11261;52.456;10.850;2023-04-29T03:18:09;16.15;;;9.20;;
22191;SDS011;11261;52.456;10.850;2023-04-29T03:20:37;17.65;;;9.55;;
22191;SDS011;11261;52.456;10.850;2023-04-29T03:23:06;14.85;;;8.63;;
22191;SDS011;11261;52.456;10.850;2023-04-29T03:25:35;11.40;;;6.80;;
22191;SDS011;11261;52.456;10.850;2023-04-29T03:28:03;13.88;;;8.43;;
22191;SDS011;11261;52.456;10.850;2023-04-29T03:30:32;12.50;;;7.57;;
22191;SDS011;11261;52.456;10.850;2023-04-29T03:33:01;12.23;;;7.72;;
22191;SDS011;11261;52.456;10.850;2023-04-29T03:35:29;13.35;;;7.15;;
22191;SDS011;11261;52.456;10.850;2023-04-29T03:37:57;11.25;;;7.40;;
22191;SDS011;11261;52.456;10.850;2023-04-29T03:40:26;12.23;;;8.25;;
22191;SDS011;11261;52.456;10.850;2023-04-29T03:42:55;12.45;;;7.93;;
22191;SDS011;11261;52.456;10.850;2023-04-29T03:45:24;15.90;;;7.70;;
22191;SDS011;11261;52.456;10.850;2023-04-29T03:47:52;13.32;;;7.93;;
22191;SDS011;11261;52.456;10.850;2023-04-29T03:50:21;13.57;;;7.88;;
22191;SDS011;11261;52.456;10.850;2023-04-29T03:52:51;13.68;;;8.15;;
22191;SDS011;11261;52.456;10.850;2023-04-29T03:55:19;11.98;;;7.38;;
22191;SDS011;11261;52.456;10.850;2023-04-29T03:57:47;11.30;;;7.32;;
22191;SDS011;11261;52.456;10.850;2023-04-29T04:00:17;10.73;;;6.72;;
22191;SDS011;11261;52.456;10.850;2023-04-29T04:02:45;13.48;;;7.50;;
22191;SDS011;11261;52.456;10.850;2023-04-29T04:05:14;10.90;;;7.05;;
22191;SDS011;11261;52.456;10.850;2023-04-29T04:07:44;12.55;;;6.40;;
22191;SDS011;11261;52.456;10.850;2023-04-29T04:10:13;10.90;;;6.47;;
22191;SDS011;11261;52.456;10.850;2023-04-29T04:12:41;9.25;;;5.30;;
22191;SDS011;11261;52.456;10.850;2023-04-29T04:15:09;12.77;;;7.78;;
22191;SDS011;11261;52.456;10.850;2023-04-29T04:17:39;10.27;;;6.22;;
22191;SDS011;11261;52.456;10.850;2023-04-29T04:20:08;10.63;;;6.50;;
22191;SDS011;11261;52.456;10.850;2023-04-29T04:22:37;9.98;;;5.90;;
22191;SDS011;11261;52.456;10.850;2023-04-29T04:25:05;11.73;;;6.72;;
22191;SDS011;11261;52.456;10.850;2023-04-29T04:27:35;10.27;;;6.00;;
22191;SDS011;11261;52.456;10.850;2023-04-29T04:30:03;12.38;;;6.13;;
22191;SDS011;11261;52.456;10.850;2023-04-29T04:32:32;11.82;;;6.95;;
22191;SDS011;11261;52.456;10.850;2023-04-29T04:35:02;11.27;;;6.45;;
22191;SDS011;11261;52.456;10.850;2023-04-29T04:37:32;9.93;;;5.72;;
22191;SDS011;11261;52.456;10.850;2023-04-29T04:40:00;11.27;;;6.55;;
22191;SDS011;11261;52.456;10.850;2023-04-29T04:42:28;13.75;;;7.13;;
22191;SDS011;11261;52.456;10.850;2023-04-29T04:44:56;10.75;;;5.70;;
22191;SDS011;11261;52.456;10.850;2023-04-29T04:47:25;12.55;;;6.60;;
22191;SDS011;11261;52.456;10.850;2023-04-29T04:49:53;9.50;;;6.70;;
22191;SDS011;11261;52.456;10.850;2023-04-29T04:52:23;12.63;;;7.22;;
22191;SDS011;11261;52.456;10.850;2023-04-29T04:54:51;10.18;;;6.00;;
22191;SDS011;11261;52.456;10.850;2023-04-29T04:57:19;7.57;;;5.47;;
22191;SDS011;11261;52.456;10.850;2023-04-29T04:59:47;7.88;;;4.60;;
22191;SDS011;11261;52.456;10.850;2023-04-29T05:02:16;7.07;;;4.47;;
22191;SDS011;11261;52.456;10.850;2023-04-29T05:04:45;6.63;;;4.63;;
22191;SDS011;11261;52.456;10.850;2023-04-29T05:07:13;6.07;;;3.80;;
22191;SDS011;11261;52.456;10.850;2023-04-29T05:09:43;5.55;;;4.22;;
22191;SDS011;11261;52.456;10.850;2023-04-29T05:12:11;4.97;;;3.40;;
22191;SDS011;11261;52.456;10.850;2023-04-29T05:14:39;6.22;;;4.28;;
22191;SDS011;11261;52.456;10.850;2023-04-29T05:17:07;4.82;;;3.28;;
22191;SDS011;11261;52.456;10.850;2023-04-29T05:19:36;7.43;;;4.32;;
22191;SDS011;11261;52.456;10.850;2023-04-29T05:22:04;6.38;;;4.25;;
22191;SDS011;11261;52.456;10.850;2023-04-29T05:24:33;6.72;;;4.03;;
22191;SDS011;11261;52.456;10.850;2023-04-29T05:27:02;5.95;;;4.20;;
22191;SDS011;11261;52.456;10.850;2023-04-29T05:29:31;7.07;;;4.53;;
22191;SDS011;11261;52.456;10.850;2023-04-29T05:31:59;7.18;;;4.28;;
22191;SDS011;11261;52.456;10.850;2023-04-29T05:34:27;6.05;;;4.28;;
22191;SDS011;11261;52.456;10.850;2023-04-29T05:36:55;7.15;;;4.20;;
22191;SDS011;11261;52.456;10.850;2023-04-29T05:39:24;7.57;;;4.75;;
22191;SDS011;11261;52.456;10.850;2023-04-29T05:41:52;10.02;;;5.15;;
22191;SDS011;11261;52.456;10.850;2023-04-29T05:44:22;6.70;;;4.60;;
22191;SDS011;11261;52.456;10.850;2023-04-29T05:46:50;8.02;;;4.57;;
22191;SDS011;11261;52.456;10.850;2023-04-29T05:49:19;9.02;;;5.30;;
22191;SDS011;11261;52.456;10.850;2023-04-29T05:51:47;9.10;;;4.85;;
22191;SDS011;11261;52.456;10.850;2023-04-29T05:54:15;7.82;;;5.15;;
22191;SDS011;11261;52.456;10.850;2023-04-29T05:56:43;9.68;;;5.80;;
22191;SDS011;11261;52.456;10.850;2023-04-29T05:59:12;8.50;;;4.72;;
22191;SDS011;11261;52.456;10.850;2023-04-29T06:01:41;7.22;;;4.75;;
22191;SDS011;11261;52.456;10.850;2023-04-29T06:04:09;8.88;;;4.05;;
22191;SDS011;11261;52.456;10.850;2023-04-29T06:06:38;5.82;;;4.07;;
22191;SDS011;11261;52.456;10.850;2023-04-29T06:09:06;6.50;;;3.95;;
22191;SDS011;11261;52.456;10.850;2023-04-29T06:11:52;5.75;;;3.85;;
22191;SDS011;11261;52.456;10.850;2023-04-29T06:14:20;7.95;;;4.72;;
22191;SDS011;11261;52.456;10.850;2023-04-29T06:16:50;7.68;;;4.70;;
22191;SDS011;11261;52.456;10.850;2023-04-29T06:19:19;6.45;;;4.13;;
22191;SDS011;11261;52.456;10.850;2023-04-29T06:21:47;10.82;;;4.38;;
22191;SDS011;11261;52.456;10.850;2023-04-29T06:24:15;6.68;;;3.92;;
22191;SDS011;11261;52.456;10.850;2023-04-29T06:26:43;6.45;;;4.20;;
22191;SDS011;11261;52.456;10.850;2023-04-29T06:29:12;5.80;;;3.38;;
22191;SDS011;11261;52.456;10.850;2023-04-29T06:31:40;6.65;;;4.82;;
22191;SDS011;11261;52.456;10.850;2023-04-29T06:34:10;8.45;;;5.13;;
22191;SDS011;11261;52.456;10.850;2023-04-29T06:36:38;7.75;;;5.20;;
22191;SDS011;11261;52.456;10.850;2023-04-29T06:39:06;8.27;;;5.15;;
22191;SDS011;11261;52.456;10.850;2023-04-29T06:41:35;7.88;;;4.72;;
22191;SDS011;11261;52.456;10.850;2023-04-29T06:44:03;8.90;;;5.55;;
22191;SDS011;11261;52.456;10.850;2023-04-29T06:46:31;11.05;;;6.40;;
22191;SDS011;11261;52.456;10.850;2023-04-29T06:48:59;10.10;;;6.57;;
22191;SDS011;11261;52.456;10.850;2023-04-29T06:51:29;11.85;;;6.30;;
22191;SDS011;11261;52.456;10.850;2023-04-29T06:53:57;8.27;;;6.10;;
22191;SDS011;11261;52.456;10.850;2023-04-29T06:56:26;11.93;;;7.10;;
22191;SDS011;11261;52.456;10.850;2023-04-29T06:58:55;10.32;;;6.63;;
22191;SDS011;11261;52.456;10.850;2023-04-29T07:01:23;10.80;;;7.50;;
22191;SDS011;11261;52.456;10.850;2023-04-29T07:03:51;14.85;;;6.75;;
22191;SDS011;11261;52.456;10.850;2023-04-29T07:06:19;12.07;;;7.50;;
22191;SDS011;11261;52.456;10.850;2023-04-29T07:08:49;13.98;;;7.68;;
22191;SDS011;11261;52.456;10.850;2023-04-29T07:11:20;14.32;;;8.90;;
22191;SDS011;11261;52.456;10.850;2023-04-29T07:13:51;15.93;;;9.38;;
22191;SDS011;11261;52.456;10.850;2023-04-29T07:16:19;12.15;;;8.18;;
22191;SDS011;11261;52.456;10.850;2023-04-29T07:18:51;15.85;;;9.27;;
22191;SDS011;11261;52.456;10.850;2023-04-29T07:21:20;11.55;;;7.90;;
22191;SDS011;11261;52.456;10.850;2023-04-29T07:23:49;13.10;;;7.95;;
22191;SDS011;11261;52.456;10.850;2023-04-29T07:26:18;12.63;;;8.57;;
22191;SDS011;11261;52.456;10.850;2023-04-29T07:28:47;13.65;;;7.18;;
22191;SDS011;11261;52.456;10.850;2023-04-29T07:31:15;12.90;;;8.13;;
22191;SDS011;11261;52.456;10.850;2023-04-29T07:33:44;12.25;;;8.35;;
22191;SDS011;11261;52.456;10.850;2023-04-29T07:36:12;12.45;;;8.25;;
22191;SDS011;11261;52.456;10.850;2023-04-29T07:38:41;12.52;;;7.50;;
22191;SDS011;11261;52.456;10.850;2023-04-29T07:41:10;10.68;;;7.82;;
22191;SDS011;11261;52.456;10.850;2023-04-29T07:43:39;15.07;;;8.20;;
22191;SDS011;11261;52.456;10.850;2023-04-29T07:46:07;14.27;;;8.00;;
22191;SDS011;11261;52.456;10.850;2023-04-29T07:48:36;13.15;;;7.75;;
22191;SDS011;11261;52.456;10.850;2023-04-29T07:51:04;13.02;;;8.07;;
22191;SDS011;11261;52.456;10.850;2023-04-29T07:53:34;13.43;;;7.20;;
22191;SDS011;11261;52.456;10.850;2023-04-29T07:56:03;11.63;;;8.00;;
22191;SDS011;11261;52.456;10.850;2023-04-29T07:58:34;13.07;;;8.40;;
22191;SDS011;11261;52.456;10.850;2023-04-29T08:01:06;10.70;;;7.10;;
22191;SDS011;11261;52.456;10.850;2023-04-29T08:03:35;12.95;;;8.57;;
22191;SDS011;11261;52.456;10.850;2023-04-29T08:06:07;13.07;;;8.18;;
22191;SDS011;11261;52.456;10.850;2023-04-29T08:08:35;12.48;;;8.25;;
22191;SDS011;11261;52.456;10.850;2023-04-29T08:11:04;11.35;;;7.55;;
22191;SDS011;11261;52.456;10.850;2023-04-29T08:13:32;12.73;;;7.82;;
22191;SDS011;11261;52.456;10.850;2023-04-29T08:16:02;11.80;;;7.45;;
22191;SDS011;11261;52.456;10.850;2023-04-29T08:18:30;11.95;;;7.45;;
22191;SDS011;11261;52.456;10.850;2023-04-29T08:20:58;10.82;;;7.70;;
22191;SDS011;11261;52.456;10.850;2023-04-29T08:23:27;14.32;;;7.93;;
22191;SDS011;11261;52.456;10.850;2023-04-29T08:25:55;11.30;;;7.25;;
22191;SDS011;11261;52.456;10.850;2023-04-29T08:28:23;9.93;;;7.10;;
22191;SDS011;11261;52.456;10.850;2023-04-29T08:30:52;10.05;;;7.25;;
22191;SDS011;11261;52.456;10.850;2023-04-29T08:33:22;10.27;;;7.10;;
22191;SDS011;11261;52.456;10.850;2023-04-29T08:35:56;10.43;;;6.75;;
22191;SDS011;11261;52.456;10.850;2023-04-29T08:38:25;10.60;;;7.22;;
22191;SDS011;11261;52.456;10.850;2023-04-29T08:40:53;12.93;;;7.22;;
22191;SDS011;11261;52.456;10.850;2023-04-29T08:43:22;11.75;;;6.82;;
22191;SDS011;11261;52.456;10.850;2023-04-29T08:45:50;11.85;;;7.45;;
22191;SDS011;11261;52.456;10.850;2023-04-29T08:48:21;8.48;;;6.40;;
22191;SDS011;11261;52.456;10.850;2023-04-29T08:50:50;8.75;;;6.65;;
22191;SDS011;11261;52.456;10.850;2023-04-29T08:53:18;11.45;;;6.63;;
22191;SDS011;11261;52.456;10.850;2023-04-29T08:55:47;9.25;;;5.95;;
22191;SDS011;11261;52.456;10.850;2023-04-29T08:58:16;10.73;;;6.80;;
22191;SDS011;11261;52.456;10.850;2023-04-29T09:00:44;7.55;;;5.13;;
22191;SDS011;11261;52.456;10.850;2023-04-29T09:03:15;7.25;;;4.78;;
22191;SDS011;11261;52.456;10.850;2023-04-29T09:05:51;9.98;;;6.13;;
22191;SDS011;11261;52.456;10.850;2023-04-29T09:08:22;9.05;;;5.85;;
22191;SDS011;11261;52.456;10.850;2023-04-29T09:10:51;9.27;;;5.35;;
22191;SDS011;11261;52.456;10.850;2023-04-29T09:13:22;10.93;;;6.32;;
22191;SDS011;11261;52.456;10.850;2023-04-29T09:15:52;7.57;;;5.65;;
22191;SDS011;11261;52.456;10.850;2023-04-29T09:21:15;10.65;;;5.45;;
22191;SDS011;11261;52.456;10.850;2023-04-29T09:23:48;8.25;;;5.95;;
22191;SDS011;11261;52.456;10.850;2023-04-29T09:26:18;3.10;;;2.58;;
22191;SDS011;11261;52.456;10.850;2023-04-29T09:28:46;6.88;;;5.65;;
22191;SDS011;11261;52.456;10.850;2023-04-29T09:31:26;6.53;;;5.28;;
22191;SDS011;11261;52.456;10.850;2023-04-29T09:33:56;5.50;;;3.53;;
22191;SDS011;11261;52.456;10.850;2023-04-29T09:36:40;9.60;;;5.07;;
22191;SDS011;11261;52.456;10.850;2023-04-29T09:39:12;6.32;;;4.70;;
22191;SDS011;11261;52.456;10.850;2023-04-29T09:41:56;6.78;;;4.53;;
22191;SDS011;11261;52.456;10.850;2023-04-29T09:44:29;5.88;;;4.25;;
22191;SDS011;11261;52.456;10.850;2023-04-29T09:47:00;5.20;;;3.72;;
22191;SDS011;11261;52.456;10.850;2023-04-29T09:49:32;7.22;;;4.95;;
22191;SDS011;11261;52.456;10.850;2023-04-29T09:52:03;6.38;;;4.15;;
22191;SDS011;11261;52.456;10.850;2023-04-29T09:54:33;5.72;;;4.10;;
22191;SDS011;11261;52.456;10.850;2023-04-29T09:57:04;5.10;;;3.78;;
22191;SDS011;11261;52.456;10.850;2023-04-29T09:59:34;5.75;;;3.78;;
22191;SDS011;11261;52.456;10.850;2023-04-29T10:02:06;7.32;;;4.57;;
22191;SDS011;11261;52.456;10.850;2023-04-29T10:04:43;5.70;;;4.00;;
22191;SDS011;11261;52.456;10.850;2023-04-29T10:07:13;5.20;;;3.38;;
22191;SDS011;11261;52.456;10.850;2023-04-29T10:09:43;3.53;;;2.70;;
22191;SDS011;11261;52.456;10.850;2023-04-29T10:12:13;4.20;;;3.28;;
22191;SDS011;11261;52.456;10.850;2023-04-29T10:14:44;6.07;;;3.22;;
22191;SDS011;11261;52.456;10.850;2023-04-29T10:17:15;5.78;;;3.85;;
22191;SDS011;11261;52.456;10.850;2023-04-29T10:19:55;6.30;;;3.72;;
22191;SDS011;11261;52.456;10.850;2023-04-29T10:22:28;9.25;;;4.40;;
22191;SDS011;11261;52.456;10.850;2023-04-29T10:25:02;7.35;;;3.97;;
22191;SDS011;11261;52.456;10.850;2023-04-29T10:27:33;7.15;;;3.50;;
22191;SDS011;11261;52.456;10.850;2023-04-29T10:30:04;6.07;;;3.17;;
22191;SDS011;11261;52.456;10.850;2023-04-29T10:32:37;7.38;;;4.00;;
22191;SDS011;11261;52.456;10.850;2023-04-29T10:35:18;4.22;;;2.58;;
22191;SDS011;11261;52.456;10.850;2023-04-29T10:37:50;5.95;;;3.15;;
22191;SDS011;11261;52.456;10.850;2023-04-29T10:40:21;5.15;;;3.60;;
22191;SDS011;11261;52.456;10.850;2023-04-29T10:42:53;7.43;;;3.63;;
22191;SDS011;11261;52.456;10.850;2023-04-29T10:45:24;6.07;;;3.90;;
22191;SDS011;11261;52.456;10.850;2023-04-29T10:48:09;7.55;;;4.13;;
22191;SDS011;11261;52.456;10.850;2023-04-29T10:53:31;5.25;;;4.15;;
22191;SDS011;11261;52.456;10.850;2023-04-29T10:56:03;6.57;;;3.47;;
22191;SDS011;11261;52.456;10.850;2023-04-29T10:58:34;4.53;;;3.50;;
22191;SDS011;11261;52.456;10.850;2023-04-29T11:01:13;4.43;;;3.53;;
22191;SDS011;11261;52.456;10.850;2023-04-29T11:06:38;6.47;;;3.90;;
22191;SDS011;11261;52.456;10.850;2023-04-29T11:09:09;5.05;;;3.58;;
22191;SDS011;11261;52.456;10.850;2023-04-29T11:11:39;6.68;;;4.05;;
22191;SDS011;11261;52.456;10.850;2023-04-29T11:14:09;7.43;;;3.33;;
22191;SDS011;11261;52.456;10.850;2023-04-29T11:16:49;5.00;;;3.85;;
22191;SDS011;11261;52.456;10.850;2023-04-29T11:19:19;6.38;;;3.50;;
22191;SDS011;11261;52.456;10.850;2023-04-29T11:22:02;4.70;;;3.55;;
22191;SDS011;11261;52.456;10.850;2023-04-29T11:24:35;5.20;;;3.45;;
22191;SDS011;11261;52.456;10.850;2023-04-29T11:27:04;6.70;;;3.63;;
22191;SDS011;11261;52.456;10.850;2023-04-29T11:29:32;3.88;;;2.97;;
22191;SDS011;11261;52.456;10.850;2023-04-29T11:32:00;6.30;;;3.53;;
22191;SDS011;11261;52.456;10.850;2023-04-29T11:34:29;4.30;;;3.42;;
22191;SDS011;11261;52.456;10.850;2023-04-29T11:36:58;6.00;;;3.47;;
22191;SDS011;11261;52.456;10.850;2023-04-29T11:39:26;5.72;;;3.70;;
22191;SDS011;11261;52.456;10.850;2023-04-29T11:42:01;4.57;;;2.70;;
22191;SDS011;11261;52.456;10.850;2023-04-29T11:44:32;6.18;;;3.08;;
22191;SDS011;11261;52.456;10.850;2023-04-29T11:47:01;6.10;;;3.33;;
22191;SDS011;11261;52.456;10.850;2023-04-29T11:49:30;9.65;;;3.58;;
22191;SDS011;11261;52.456;10.850;2023-04-29T11:52:00;6.22;;;3.17;;
22191;SDS011;11261;52.456;10.850;2023-04-29T11:54:28;4.03;;;3.10;;
22191;SDS011;11261;52.456;10.850;2023-04-29T11:56:57;4.82;;;2.75;;
22191;SDS011;11261;52.456;10.850;2023-04-29T11:59:27;4.60;;;3.38;;
22191;SDS011;11261;52.456;10.850;2023-04-29T12:01:57;10.68;;;3.00;;
22191;SDS011;11261;52.456;10.850;2023-04-29T12:04:26;6.60;;;3.13;;
22191;SDS011;11261;52.456;10.850;2023-04-29T12:06:55;6.43;;;3.30;;
22191;SDS011;11261;52.456;10.850;2023-04-29T12:09:26;5.00;;;2.63;;
22191;SDS011;11261;52.456;10.850;2023-04-29T12:11:54;4.65;;;3.35;;
22191;SDS011;11261;52.456;10.850;2023-04-29T12:14:22;4.35;;;3.10;;
22191;SDS011;11261;52.456;10.850;2023-04-29T12:16:51;6.05;;;3.58;;
22191;SDS011;11261;52.456;10.850;2023-04-29T12:19:19;7.07;;;3.05;;
22191;SDS011;11261;52.456;10.850;2023-04-29T12:21:48;4.55;;;3.47;;
22191;SDS011;11261;52.456;10.850;2023-04-29T12:24:19;7.50;;;4.20;;
22191;SDS011;11261;52.456;10.850;2023-04-29T12:26:49;5.18;;;3.33;;
22191;SDS011;11261;52.456;10.850;2023-04-29T12:29:19;6.35;;;3.40;;
22191;SDS011;11261;52.456;10.850;2023-04-29T12:31:49;5.00;;;3.28;;
22191;SDS011;11261;52.456;10.850;2023-04-29T12:34:23;4.72;;;2.97;;
22191;SDS011;11261;52.456;10.850;2023-04-29T12:36:53;8.20;;;3.13;;
22191;SDS011;11261;52.456;10.850;2023-04-29T12:39:23;4.95;;;2.90;;
22191;SDS011;11261;52.456;10.850;2023-04-29T12:41:56;5.45;;;2.90;;
22191;SDS011;11261;52.456;10.850;2023-04-29T12:44:25;6.05;;;3.55;;
22191;SDS011;11261;52.456;10.850;2023-04-29T12:46:53;4.88;;;3.05;;
22191;SDS011;11261;52.456;10.850;2023-04-29T12:49:23;3.88;;;2.85;;
22191;SDS011;11261;52.456;10.850;2023-04-29T12:51:52;5.75;;;3.25;;
22191;SDS011;11261;52.456;10.850;2023-04-29T12:54:20;6.05;;;2.75;;
22191;SDS011;11261;52.456;10.850;2023-04-29T12:56:48;5.00;;;2.60;;
22191;SDS011;11261;52.456;10.850;2023-04-29T12:59:18;5.03;;;3.13;;
22191;SDS011;11261;52.456;10.850;2023-04-29T13:01:46;6.88;;;2.95;;
22191;SDS011;11261;52.456;10.850;2023-04-29T13:04:14;5.68;;;2.70;;
22191;SDS011;11261;52.456;10.850;2023-04-29T13:06:43;6.25;;;3.10;;
22191;SDS011;11261;52.456;10.850;2023-04-29T13:09:11;4.18;;;2.75;;
22191;SDS011;11261;52.456;10.850;2023-04-29T13:11:44;5.53;;;2.78;;
22191;SDS011;11261;52.456;10.850;2023-04-29T13:14:13;5.30;;;2.72;;
22191;SDS011;11261;52.456;10.850;2023-04-29T13:16:43;3.92;;;2.55;;
22191;SDS011;11261;52.456;10.850;2023-04-29T13:19:12;3.42;;;2.58;;
22191;SDS011;11261;52.456;10.850;2023-04-29T13:22:00;6.78;;;2.60;;
22191;SDS011;11261;52.456;10.850;2023-04-29T13:24:28;7.88;;;2.80;;
22191;SDS011;11261;52.456;10.850;2023-04-29T13:26:58;5.88;;;2.10;;
22191;SDS011;11261;52.456;10.850;2023-04-29T13:29:28;3.53;;;1.88;;
22191;SDS011;11261;52.456;10.850;2023-04-29T13:31:58;3.78;;;1.92;;
22191;SDS011;11261;52.456;10.850;2023-04-29T13:34:26;2.05;;;1.73;;
22191;SDS011;11261;52.456;10.850;2023-04-29T13:36:55;3.97;;;2.25;;
22191;SDS011;11261;52.456;10.850;2023-04-29T13:39:23;2.35;;;1.80;;
22191;SDS011;11261;52.456;10.850;2023-04-29T13:41:52;4.00;;;2.00;;
22191;SDS011;11261;52.456;10.850;2023-04-29T13:44:24;4.82;;;2.30;;
22191;SDS011;11261;52.456;10.850;2023-04-29T13:47:14;3.60;;;2.28;;
22191;SDS011;11261;52.456;10.850;2023-04-29T13:49:51;4.63;;;2.47;;
22191;SDS011;11261;52.456;10.850;2023-04-29T13:52:22;3.05;;;2.40;;
22191;SDS011;11261;52.456;10.850;2023-04-29T13:54:53;3.95;;;2.28;;
22191;SDS011;11261;52.456;10.850;2023-04-29T13:57:41;5.80;;;1.90;;
22191;SDS011;11261;52.456;10.850;2023-04-29T14:00:30;3.25;;;1.92;;
22191;SDS011;11261;52.456;10.850;2023-04-29T14:03:19;5.55;;;2.05;;
22191;SDS011;11261;52.456;10.850;2023-04-29T14:05:48;4.70;;;1.80;;
22191;SDS011;11261;52.456;10.850;2023-04-29T14:08:17;5.60;;;2.28;;
22191;SDS011;11261;52.456;10.850;2023-04-29T14:10:45;3.20;;;2.03;;
22191;SDS011;11261;52.456;10.850;2023-04-29T14:13:13;4.28;;;2.20;;
22191;SDS011;11261;52.456;10.850;2023-04-29T14:15:43;4.78;;;2.00;;
22191;SDS011;11261;52.456;10.850;2023-04-29T14:18:12;1.75;;;1.58;;
22191;SDS011;11261;52.456;10.850;2023-04-29T14:20:42;3.78;;;1.75;;
22191;SDS011;11261;52.456;10.850;2023-04-29T14:23:10;3.28;;;2.17;;
22191;SDS011;11261;52.456;10.850;2023-04-29T14:25:38;3.03;;;2.00;;
22191;SDS011;11261;52.456;10.850;2023-04-29T14:28:06;2.85;;;1.30;;
22191;SDS011;11261;52.456;10.850;2023-04-29T14:30:34;3.40;;;2.22;;
22191;SDS011;11261;52.456;10.850;2023-04-29T14:33:03;4.20;;;2.17;;
22191;SDS011;11261;52.456;10.850;2023-04-29T14:35:31;5.22;;;2.30;;
22191;SDS011;11261;52.456;10.850;2023-04-29T14:38:01;2.90;;;1.80;;
22191;SDS011;11261;52.456;10.850;2023-04-29T14:40:29;2.60;;;1.80;;
22191;SDS011;11261;52.456;10.850;2023-04-29T14:42:57;4.05;;;1.88;;
22191;SDS011;11261;52.456;10.850;2023-04-29T14:45:26;3.05;;;1.52;;
22191;SDS011;11261;52.456;10.850;2023-04-29T14:47:55;3.13;;;1.80;;
22191;SDS011;11261;52.456;10.850;2023-04-29T14:50:23;2.30;;;1.70;;
22191;SDS011;11261;52.456;10.850;2023-04-29T14:52:51;3.30;;;1.85;;
22191;SDS011;11261;52.456;10.850;2023-04-29T14:55:21;4.13;;;1.40;;